createdAt,value
2016-06-27T00:00:31.452Z,23.1
2016-06-27T00:01:30.886Z,23.1
2016-06-27T00:02:30.561Z,23.1
2016-06-27T00:03:30.113Z,23.1
2016-06-27T00:04:29.562Z,23.1
2016-06-27T00:05:29.359Z,23.1
2016-06-27T00:06:28.857Z,23.1
2016-06-27T00:07:29.738Z,23.1
2016-06-27T00:08:29.559Z,23.1
2016-06-27T00:09:29.362Z,23.2
2016-06-27T00:10:29.334Z,23.2
2016-06-27T00:11:28.985Z,23.2
2016-06-27T00:12:28.786Z,23.3
2016-06-27T00:13:28.342Z,23.3
2016-06-27T00:14:27.895Z,23.3
2016-06-27T00:15:27.566Z,23.3
2016-06-27T00:16:27.066Z,23.4
2016-06-27T00:17:28.084Z,23.4
2016-06-27T00:18:27.792Z,23.4
2016-06-27T00:19:27.421Z,23.5
2016-06-27T00:20:26.866Z,23.5
2016-06-27T00:21:26.416Z,23.5
2016-06-27T00:22:25.970Z,23.5
2016-06-27T00:23:25.529Z,23.5
2016-06-27T00:24:25.093Z,23.6
2016-06-27T00:25:24.518Z,23.6
2016-06-27T00:26:24.147Z,23.7
2016-06-27T00:27:25.268Z,23.7
2016-06-27T00:28:24.698Z,23.7
2016-06-27T00:29:23.998Z,23.7
2016-06-27T00:30:23.419Z,23.7
2016-06-27T00:31:22.607Z,23.7
2016-06-27T00:32:21.908Z,23.8
2016-06-27T00:33:21.355Z,23.8
2016-06-27T00:34:20.634Z,23.8
2016-06-27T00:35:19.820Z,23.8
2016-06-27T00:36:19.296Z,23.8
2016-06-27T00:37:20.198Z,23.8
2016-06-27T00:38:19.504Z,23.8
2016-06-27T00:39:18.806Z,23.8
2016-06-27T00:40:18.107Z,23.8
2016-06-27T00:41:17.409Z,23.9
2016-06-27T00:42:16.710Z,23.9
2016-06-27T00:43:16.015Z,23.9
2016-06-27T00:44:15.434Z,23.9
2016-06-27T00:45:14.615Z,23.9
2016-06-27T00:46:14.096Z,23.9
2016-06-27T00:47:15.119Z,23.9
2016-06-27T00:48:14.300Z,23.9
2016-06-27T00:49:13.607Z,23.9
2016-06-27T00:50:13.021Z,23.9
2016-06-27T00:51:12.326Z,23.9
2016-06-27T00:52:11.644Z,23.9
2016-06-27T00:53:10.809Z,23.9
2016-06-27T00:54:10.225Z,23.9
2016-06-27T00:55:09.545Z,24
2016-06-27T00:56:08.781Z,24
2016-06-27T00:57:09.805Z,24
2016-06-27T00:58:09.105Z,24
2016-06-27T00:59:08.410Z,24
2016-06-27T01:00:07.827Z,24
2016-06-27T01:01:07.013Z,24
2016-06-27T01:02:06.435Z,24
2016-06-27T01:03:05.612Z,24
2016-06-27T01:04:05.040Z,24
2016-06-27T01:05:04.334Z,24
2016-06-27T01:06:03.697Z,24
2016-06-27T01:07:04.609Z,24
2016-06-27T01:08:04.020Z,24
2016-06-27T01:09:03.206Z,24
2016-06-27T01:10:02.625Z,24
2016-06-27T01:11:01.792Z,24.1
2016-06-27T01:12:01.095Z,24.1
2016-06-27T01:13:00.515Z,24.1
2016-06-27T01:13:59.692Z,24.1
2016-06-27T01:14:59.110Z,24.1
2016-06-27T01:15:58.471Z,24.1
2016-06-27T01:16:59.372Z,24.1
2016-06-27T01:17:58.822Z,24.1
2016-06-27T01:18:58.016Z,24.1
2016-06-27T01:19:57.271Z,24.1
2016-06-27T01:20:56.697Z,24.1
2016-06-27T01:21:55.994Z,24.1
2016-06-27T01:22:55.409Z,24.1
2016-06-27T01:23:54.502Z,24.1
2016-06-27T01:24:53.893Z,24.1
2016-06-27T01:25:53.133Z,24.1
2016-06-27T01:26:54.149Z,24.1
2016-06-27T01:27:53.570Z,24.1
2016-06-27T01:28:52.751Z,24.1
2016-06-27T01:29:52.168Z,24.1
2016-06-27T01:30:51.352Z,24.1
2016-06-27T01:31:50.656Z,24.1
2016-06-27T01:32:49.960Z,24.1
2016-06-27T01:33:49.276Z,24.1
2016-06-27T01:34:48.678Z,24.1
2016-06-27T01:35:47.922Z,24.1
2016-06-27T01:36:48.939Z,24.1
2016-06-27T01:37:48.241Z,24.1
2016-06-27T01:38:47.535Z,24.1
2016-06-27T01:39:46.837Z,24.1
2016-06-27T01:40:46.149Z,24.1
2016-06-27T01:41:45.438Z,24.1
2016-06-27T01:42:44.973Z,24.1
2016-06-27T01:43:44.042Z,24.1
2016-06-27T01:44:43.459Z,24.1
2016-06-27T01:45:42.698Z,24.1
2016-06-27T01:46:43.720Z,24.1
2016-06-27T01:47:43.134Z,24.1
2016-06-27T01:48:42.430Z,24.1
2016-06-27T01:49:41.620Z,24.1
2016-06-27T01:50:40.918Z,24.1
2016-06-27T01:51:40.218Z,24.1
2016-06-27T01:52:39.638Z,24.1
2016-06-27T01:53:38.824Z,24.1
2016-06-27T01:54:38.239Z,24.1
2016-06-27T01:55:37.478Z,24.1
2016-06-27T01:56:38.500Z,24.1
2016-06-27T01:57:37.801Z,24.1
2016-06-27T01:58:37.225Z,24.1
2016-06-27T01:59:36.406Z,24.1
2016-06-27T02:00:35.702Z,24.1
2016-06-27T02:01:35.119Z,24.1
2016-06-27T02:02:34.314Z,24.1
2016-06-27T02:03:33.720Z,24.1
2016-06-27T02:04:33.019Z,24.1
2016-06-27T02:05:32.258Z,24.1
2016-06-27T02:06:33.279Z,24.1
2016-06-27T02:07:32.586Z,24.1
2016-06-27T02:08:31.889Z,24.1
2016-06-27T02:09:31.177Z,24.1
2016-06-27T02:10:30.350Z,24.1
2016-06-27T02:11:29.647Z,24.1
2016-06-27T02:12:28.944Z,24.1
2016-06-27T02:13:27.990Z,24.1
2016-06-27T02:14:27.038Z,24.1
2016-06-27T02:15:26.030Z,24.1
2016-06-27T02:16:27.163Z,24.1
2016-06-27T02:17:26.089Z,24.1
2016-06-27T02:18:25.138Z,24.1
2016-06-27T02:19:24.467Z,24.1
2016-06-27T02:20:23.348Z,24.1
2016-06-27T02:21:22.396Z,24.1
2016-06-27T02:22:21.325Z,24.1
2016-06-27T02:23:20.489Z,24.1
2016-06-27T02:24:19.415Z,24.1
2016-06-27T02:25:18.521Z,24.1
2016-06-27T02:26:19.535Z,24.1
2016-06-27T02:27:18.584Z,24.1
2016-06-27T02:28:17.631Z,24.1
2016-06-27T02:29:16.793Z,24.1
2016-06-27T02:30:15.843Z,24.2
2016-06-27T02:31:14.771Z,24.2
2016-06-27T02:32:13.822Z,24.2
2016-06-27T02:33:12.867Z,24.2
2016-06-27T02:34:11.916Z,24.2
2016-06-27T02:35:11.021Z,24.2
2016-06-27T02:36:12.039Z,24.2
2016-06-27T02:37:10.832Z,24.2
2016-06-27T02:38:09.997Z,24.2
2016-06-27T02:39:08.795Z,24.2
2016-06-27T02:40:07.472Z,24.2
2016-06-27T02:41:06.276Z,24.2
2016-06-27T02:42:05.312Z,24.2
2016-06-27T02:43:04.106Z,24.2
2016-06-27T02:44:02.902Z,24.2
2016-06-27T02:45:01.753Z,24.2
2016-06-27T02:46:02.767Z,24.2
2016-06-27T02:47:01.568Z,24.2
2016-06-27T02:48:00.356Z,24.2
2016-06-27T02:48:59.150Z,24.2
2016-06-27T02:49:58.063Z,24.2
2016-06-27T02:50:56.856Z,24.2
2016-06-27T02:51:55.532Z,24.2
2016-06-27T02:52:54.327Z,24.2
2016-06-27T02:53:53.121Z,24.2
2016-06-27T02:54:52.084Z,24.2
2016-06-27T02:55:52.986Z,24.2
2016-06-27T02:56:51.781Z,24.2
2016-06-27T02:57:50.571Z,24.2
2016-06-27T02:58:49.488Z,24.2
2016-06-27T02:59:48.156Z,24.2
2016-06-27T03:00:46.952Z,24.2
2016-06-27T03:01:45.745Z,24.2
2016-06-27T03:02:44.655Z,24.2
2016-06-27T03:03:43.335Z,24.2
2016-06-27T03:04:42.185Z,24.3
2016-06-27T03:05:43.205Z,24.3
2016-06-27T03:06:42.125Z,24.3
2016-06-27T03:07:40.789Z,24.2
2016-06-27T03:08:39.704Z,24.3
2016-06-27T03:09:38.498Z,24.3
2016-06-27T03:10:37.174Z,24.3
2016-06-27T03:11:35.967Z,24.2
2016-06-27T03:12:34.762Z,24.3
2016-06-27T03:13:33.671Z,24.2
2016-06-27T03:14:32.411Z,24.2
2016-06-27T03:15:33.416Z,24.2
2016-06-27T03:16:32.217Z,24.2
2016-06-27T03:17:31.141Z,24.3
2016-06-27T03:18:29.802Z,24.2
2016-06-27T03:19:28.857Z,24.3
2016-06-27T03:20:27.391Z,24.3
2016-06-27T03:21:26.190Z,24.3
2016-06-27T03:22:24.987Z,24.2
2016-06-27T03:23:23.885Z,24.3
2016-06-27T03:24:22.631Z,24.3
2016-06-27T03:25:23.635Z,24.3
2016-06-27T03:26:22.548Z,24.3
2016-06-27T03:27:21.345Z,24.2
2016-06-27T03:28:20.132Z,24.3
2016-06-27T03:29:18.806Z,24.3
2016-06-27T03:30:17.718Z,24.3
2016-06-27T03:31:16.393Z,24.2
2016-06-27T03:32:15.336Z,24.3
2016-06-27T03:33:13.730Z,24.3
2016-06-27T03:34:12.580Z,24.3
2016-06-27T03:35:13.712Z,24.3
2016-06-27T03:36:12.502Z,24.2
2016-06-27T03:37:11.297Z,24.3
2016-06-27T03:38:10.005Z,24.3
2016-06-27T03:39:08.542Z,24.3
2016-06-27T03:40:07.081Z,24.3
2016-06-27T03:41:05.741Z,24.3
2016-06-27T03:42:04.166Z,24.3
2016-06-27T03:43:02.822Z,24.3
2016-06-27T03:44:01.305Z,24.3
2016-06-27T03:45:02.325Z,24.3
2016-06-27T03:46:00.859Z,24.3
2016-06-27T03:46:59.399Z,24.3
2016-06-27T03:47:58.063Z,24.3
2016-06-27T03:48:56.478Z,24.3
2016-06-27T03:49:55.024Z,24.3
2016-06-27T03:50:53.569Z,24.3
2016-06-27T03:51:52.105Z,24.3
2016-06-27T03:52:50.650Z,24.3
2016-06-27T03:53:49.249Z,24.3
2016-06-27T03:54:50.377Z,24.3
2016-06-27T03:55:48.800Z,24.3
2016-06-27T03:56:47.355Z,24.3
2016-06-27T03:57:46.013Z,24.3
2016-06-27T03:58:44.426Z,24.3
2016-06-27T03:59:42.970Z,24.3
2016-06-27T04:00:41.632Z,24.3
2016-06-27T04:01:40.162Z,24.3
2016-06-27T04:02:38.591Z,24.3
2016-06-27T04:03:37.184Z,24.3
2016-06-27T04:04:38.221Z,24.3
2016-06-27T04:05:36.741Z,24.4
2016-06-27T04:06:35.288Z,24.3
2016-06-27T04:07:33.817Z,24.3
2016-06-27T04:08:32.356Z,24.4
2016-06-27T04:09:30.898Z,24.4
2016-06-27T04:10:29.451Z,24.4
2016-06-27T04:11:27.999Z,24.4
2016-06-27T04:12:26.634Z,24.4
2016-06-27T04:13:25.115Z,24.4
2016-06-27T04:14:26.100Z,24.4
2016-06-27T04:15:24.894Z,24.4
2016-06-27T04:16:23.810Z,24.4
2016-06-27T04:17:22.596Z,24.4
2016-06-27T04:18:21.389Z,24.4
2016-06-27T04:19:20.182Z,24.4
2016-06-27T04:20:19.170Z,24.4
2016-06-27T04:21:18.161Z,24.4
2016-06-27T04:22:17.206Z,24.4
2016-06-27T04:23:16.463Z,24.4
2016-06-27T04:24:17.330Z,24.4
2016-06-27T04:25:16.750Z,24.4
2016-06-27T04:26:15.932Z,24.3
2016-06-27T04:27:15.347Z,24.4
2016-06-27T04:28:14.794Z,24.3
2016-06-27T04:29:14.716Z,24.3
2016-06-27T04:30:14.404Z,24.4
2016-06-27T04:31:14.218Z,24.3
2016-06-27T04:32:14.275Z,24.3
2016-06-27T04:33:14.653Z,24.3
2016-06-27T04:34:15.670Z,24.3
2016-06-27T04:35:16.090Z,24.3
2016-06-27T04:36:16.306Z,24.4
2016-06-27T04:37:16.599Z,24.3
2016-06-27T04:38:16.923Z,24.4
2016-06-27T04:39:17.486Z,24.4
2016-06-27T04:40:18.167Z,24.3
2016-06-27T04:41:18.732Z,24.4
2016-06-27T04:42:19.189Z,24.4
2016-06-27T04:43:19.926Z,24.4
2016-06-27T04:44:20.839Z,24.4
2016-06-27T04:45:21.907Z,24.4
2016-06-27T04:46:22.730Z,24.4
2016-06-27T04:47:23.669Z,24.4
2016-06-27T04:48:24.489Z,24.4
2016-06-27T04:49:25.308Z,24.4
2016-06-27T04:50:26.134Z,24.4
2016-06-27T04:51:26.948Z,24.4
2016-06-27T04:52:27.781Z,24.4
2016-06-27T04:53:28.779Z,24.4
2016-06-27T04:54:29.920Z,24.4
2016-06-27T04:55:31.131Z,24.4
2016-06-27T04:56:32.711Z,24.3
2016-06-27T04:57:34.304Z,24.3
2016-06-27T04:58:35.882Z,24.3
2016-06-27T04:59:37.459Z,24.3
2016-06-27T05:00:38.788Z,24.3
2016-06-27T05:01:40.121Z,24.3
2016-06-27T05:02:41.448Z,24.3
2016-06-27T05:03:43.203Z,24.3
2016-06-27T05:04:44.221Z,24.3
2016-06-27T05:05:45.803Z,24.3
2016-06-27T05:06:47.271Z,24.3
2016-06-27T05:07:48.855Z,24.3
2016-06-27T05:08:50.437Z,24.3
2016-06-27T05:09:51.760Z,24.3
2016-06-27T05:10:53.206Z,24.3
2016-06-27T05:11:54.534Z,24.3
2016-06-27T05:12:55.861Z,24.3
2016-06-27T05:13:57.246Z,24.3
2016-06-27T05:14:58.263Z,24.3
2016-06-27T05:15:59.473Z,24.2
2016-06-27T05:17:00.913Z,24.2
2016-06-27T05:18:02.253Z,24.3
2016-06-27T05:19:03.572Z,24.3
2016-06-27T05:20:05.150Z,24.3
2016-06-27T05:21:06.418Z,24.3
2016-06-27T05:22:07.805Z,24.3
2016-06-27T05:23:09.130Z,24.3
2016-06-27T05:24:10.393Z,24.3
2016-06-27T05:25:11.422Z,24.3
2016-06-27T05:26:12.495Z,24.3
2016-06-27T05:27:13.309Z,24.3
2016-06-27T05:29:14.814Z,24.4
2016-06-27T05:30:15.269Z,24.3
2016-06-27T05:31:15.835Z,24.4
2016-06-27T05:32:16.516Z,24.4
2016-06-27T05:33:17.083Z,24.4
2016-06-27T05:34:17.592Z,24.4
2016-06-27T05:35:18.724Z,24.3
2016-06-27T05:36:19.046Z,24.4
2016-06-27T05:37:19.235Z,24.4
2016-06-27T05:38:19.663Z,24.4
2016-06-27T05:39:20.123Z,24.4
2016-06-27T05:40:20.686Z,24.4
2016-06-27T05:41:21.001Z,24.4
2016-06-27T05:42:21.311Z,24.4
2016-06-27T05:43:21.623Z,24.4
2016-06-27T05:44:22.000Z,24.4
2016-06-27T05:45:23.015Z,24.4
2016-06-27T05:46:23.443Z,24.5
2016-06-27T05:47:23.642Z,24.5
2016-06-27T05:48:24.071Z,24.5
2016-06-27T05:49:24.265Z,24.6
2016-06-27T05:50:24.447Z,24.7
2016-06-27T05:51:24.503Z,24.7
2016-06-27T05:52:24.573Z,24.7
2016-06-27T05:53:24.765Z,24.8
2016-06-27T05:54:25.395Z,24.8
2016-06-27T05:55:26.409Z,24.8
2016-06-27T05:56:27.235Z,24.9
2016-06-27T05:57:28.439Z,24.8
2016-06-27T05:58:29.490Z,24.8
2016-06-27T05:59:30.811Z,24.7
2016-06-27T06:00:32.147Z,24.7
2016-06-27T06:01:33.727Z,24.7
2016-06-27T06:02:31.504Z,24.7
2016-06-27T06:03:29.279Z,24.7
2016-06-27T06:04:27.007Z,24.7
2016-06-27T06:05:28.026Z,24.7
2016-06-27T06:06:29.731Z,24.8
2016-06-27T06:07:31.182Z,24.9
2016-06-27T06:08:32.635Z,25.1
2016-06-27T06:09:33.591Z,25.1
2016-06-27T06:10:34.658Z,25.3
2016-06-27T06:11:35.734Z,25.2
2016-06-27T06:12:36.919Z,25.2
2016-06-27T06:13:38.242Z,25.1
2016-06-27T06:14:39.510Z,25.1
2016-06-27T06:15:40.528Z,25
2016-06-27T06:16:41.853Z,24.9
2016-06-27T06:17:43.187Z,24.9
2016-06-27T06:18:44.765Z,24.9
2016-06-27T06:19:42.542Z,24.8
2016-06-27T06:20:40.327Z,24.8
2016-06-27T06:21:38.392Z,24.7
2016-06-27T06:22:36.511Z,24.7
2016-06-27T06:23:34.690Z,24.6
2016-06-27T06:24:33.394Z,24.7
2016-06-27T06:25:34.437Z,24.6
2016-06-27T06:26:33.462Z,24.6
2016-06-27T06:27:32.259Z,24.6
2016-06-27T06:28:30.947Z,24.6
2016-06-27T06:29:30.103Z,24.6
2016-06-27T06:30:29.278Z,24.5
2016-06-27T06:31:28.325Z,24.5
2016-06-27T06:32:27.114Z,24.5
2016-06-27T06:33:25.913Z,24.5
2016-06-27T06:34:24.882Z,24.5
2016-06-27T06:35:25.781Z,24.5
2016-06-27T06:36:24.690Z,24.4
2016-06-27T06:37:23.617Z,24.4
2016-06-27T06:38:22.666Z,24.4
2016-06-27T06:39:21.742Z,24.4
2016-06-27T06:40:21.138Z,24.4
2016-06-27T06:41:20.691Z,24.4
2016-06-27T06:42:20.235Z,24.4
2016-06-27T06:43:19.937Z,24.4
2016-06-27T06:44:19.551Z,24.4
2016-06-27T06:45:20.671Z,24.4
2016-06-27T06:46:19.855Z,24.4
2016-06-27T06:47:19.531Z,24.3
2016-06-27T06:48:18.828Z,24.4
2016-06-27T06:49:18.131Z,24.3
2016-06-27T06:50:17.309Z,24.3
2016-06-27T06:51:16.729Z,24.3
2016-06-27T06:52:16.169Z,24.3
2016-06-27T06:53:15.838Z,24.3
2016-06-27T06:54:15.074Z,24.3
2016-06-27T06:55:16.209Z,24.3
2016-06-27T06:56:15.383Z,24.3
2016-06-27T06:57:14.546Z,24.4
2016-06-27T06:58:13.343Z,24.3
2016-06-27T06:59:12.023Z,24.3
2016-06-27T07:00:11.186Z,24.4
2016-06-27T07:01:09.986Z,24.3
2016-06-27T07:02:08.521Z,24.3
2016-06-27T07:03:07.323Z,24.4
2016-06-27T07:04:05.915Z,24.3
2016-06-27T07:05:06.937Z,24.3
2016-06-27T07:06:05.355Z,24.4
2016-06-27T07:07:03.899Z,24.4
2016-06-27T07:08:02.428Z,24.4
2016-06-27T07:09:00.722Z,24.4
2016-06-27T07:09:59.376Z,24.4
2016-06-27T07:10:57.550Z,24.4
2016-06-27T07:11:55.955Z,24.4
2016-06-27T07:12:54.118Z,24.4
2016-06-27T07:13:52.484Z,24.4
2016-06-27T07:14:53.600Z,24.4
2016-06-27T07:15:51.519Z,24.4
2016-06-27T07:16:49.546Z,24.4
2016-06-27T07:17:47.579Z,24.5
2016-06-27T07:18:45.361Z,24.4
2016-06-27T07:19:43.136Z,24.5
2016-06-27T07:20:40.913Z,24.5
2016-06-27T07:21:38.764Z,24.5
2016-06-27T07:22:36.734Z,24.5
2016-06-27T07:23:34.708Z,24.5
2016-06-27T07:24:35.587Z,24.5
2016-06-27T07:25:33.363Z,24.5
2016-06-27T07:26:35.062Z,24.5
2016-06-27T07:27:36.537Z,24.6
2016-06-27T07:28:38.103Z,24.6
2016-06-27T07:29:39.689Z,24.6
2016-06-27T07:30:41.014Z,24.6
2016-06-27T07:31:42.341Z,24.6
2016-06-27T07:32:43.798Z,24.6
2016-06-27T07:33:44.922Z,24.6
2016-06-27T07:34:45.831Z,24.6
2016-06-27T07:35:46.646Z,24.7
2016-06-27T07:36:47.590Z,24.6
2016-06-27T07:37:48.286Z,24.6
2016-06-27T07:38:49.220Z,24.7
2016-06-27T07:39:49.671Z,24.7
2016-06-27T07:40:50.243Z,24.7
2016-06-27T07:41:50.809Z,24.7
2016-06-27T07:42:51.385Z,24.6
2016-06-27T07:43:51.999Z,24.7
2016-06-27T07:44:53.128Z,24.7
2016-06-27T07:45:53.698Z,24.7
2016-06-27T07:46:54.151Z,24.6
2016-06-27T07:47:54.726Z,24.7
2016-06-27T07:48:55.662Z,24.7
2016-06-27T07:49:56.355Z,24.7
2016-06-27T07:50:56.921Z,24.7
2016-06-27T07:51:57.489Z,24.7
2016-06-27T07:52:58.054Z,24.7
2016-06-27T07:53:58.428Z,24.6
2016-06-27T07:54:59.446Z,24.7
2016-06-27T07:55:59.779Z,24.6
2016-06-27T07:57:00.186Z,24.7
2016-06-27T07:58:00.641Z,24.7
2016-06-27T07:59:01.215Z,24.7
2016-06-27T08:00:01.520Z,24.7
2016-06-27T08:01:01.834Z,24.7
2016-06-27T08:02:02.147Z,24.7
2016-06-27T08:03:02.833Z,24.7
2016-06-27T08:04:03.708Z,24.7
2016-06-27T08:05:04.618Z,24.7
2016-06-27T08:06:05.427Z,24.7
2016-06-27T08:07:06.111Z,24.7
2016-06-27T08:08:06.680Z,24.7
2016-06-27T08:09:07.521Z,24.7
2016-06-27T08:10:08.205Z,24.7
2016-06-27T08:11:09.030Z,24.7
2016-06-27T08:12:09.865Z,24.8
2016-06-27T08:13:10.538Z,24.8
2016-06-27T08:14:11.042Z,24.8
2016-06-27T08:15:12.064Z,24.8
2016-06-27T08:16:12.377Z,24.8
2016-06-27T08:17:12.683Z,24.8
2016-06-27T08:18:12.746Z,24.9
2016-06-27T08:19:12.832Z,24.8
2016-06-27T08:20:12.986Z,24.8
2016-06-27T08:21:13.189Z,24.9
2016-06-27T08:22:13.533Z,24.8
2016-06-27T08:23:13.815Z,24.8
2016-06-27T08:24:14.044Z,24.8
2016-06-27T08:25:15.063Z,24.8
2016-06-27T08:26:15.263Z,24.8
2016-06-27T08:27:15.592Z,24.8
2016-06-27T08:28:16.003Z,24.8
2016-06-27T08:29:15.952Z,24.8
2016-06-27T08:31:16.688Z,24.8
2016-06-27T08:32:16.784Z,24.7
2016-06-27T08:33:16.691Z,24.8
2016-06-27T08:34:17.059Z,24.8
2016-06-27T08:35:18.202Z,24.8
2016-06-27T08:36:18.505Z,24.8
2016-06-27T08:37:18.574Z,24.8
2016-06-27T08:38:18.511Z,24.8
2016-06-27T08:39:18.334Z,24.7
2016-06-27T08:40:18.358Z,24.7
2016-06-27T08:41:18.299Z,24.8
2016-06-27T08:42:18.246Z,24.7
2016-06-27T08:43:18.110Z,24.8
2016-06-27T08:44:18.204Z,24.8
2016-06-27T08:45:19.306Z,24.8
2016-06-27T08:46:18.994Z,24.7
2016-06-27T08:47:18.916Z,24.7
2016-06-27T08:48:18.722Z,24.8
2016-06-27T08:49:18.422Z,24.7
2016-06-27T08:50:18.219Z,24.8
2016-06-27T08:51:18.148Z,24.7
2016-06-27T08:52:17.837Z,24.8
2016-06-27T08:53:17.765Z,24.8
2016-06-27T08:54:17.374Z,24.8
2016-06-27T08:55:18.267Z,24.7
2016-06-27T08:56:17.947Z,24.7
2016-06-27T08:58:17.071Z,24.7
2016-06-27T08:59:16.481Z,24.7
2016-06-27T09:00:16.153Z,24.7
2016-06-27T09:01:15.612Z,24.7
2016-06-27T09:02:15.267Z,24.7
2016-06-27T09:03:14.440Z,24.7
2016-06-27T09:04:13.819Z,24.7
2016-06-27T09:05:14.821Z,24.7
2016-06-27T09:06:14.234Z,24.7
2016-06-27T09:07:13.542Z,24.7
2016-06-27T09:08:12.717Z,24.7
2016-06-27T09:09:12.003Z,24.7
2016-06-27T09:10:10.927Z,24.6
2016-06-27T09:11:09.978Z,24.7
2016-06-27T09:12:08.906Z,24.6
2016-06-27T09:13:07.963Z,24.6
2016-06-27T09:16:07.123Z,24.5
2016-06-27T09:17:05.917Z,24.5
2016-06-27T09:18:04.974Z,24.5
2016-06-27T09:19:04.010Z,24.5
2016-06-27T09:20:03.062Z,24.5
2016-06-27T09:21:02.358Z,24.5
2016-06-27T09:22:01.659Z,24.4
2016-06-27T09:23:00.999Z,24.3
2016-06-27T09:24:00.178Z,24.4
2016-06-27T09:25:01.203Z,24.3
2016-06-27T09:26:00.504Z,24.3
2016-06-27T09:26:59.937Z,24.3
2016-06-27T09:27:59.611Z,24.3
2016-06-27T09:28:59.303Z,24.3
2016-06-27T09:29:59.235Z,24.3
2016-06-27T09:30:58.938Z,24.3
2016-06-27T09:31:58.846Z,24.3
2016-06-27T09:32:58.554Z,24.2
2016-06-27T09:33:58.535Z,24.2
2016-06-27T09:35:59.357Z,24.2
2016-06-27T09:36:59.036Z,24.2
2016-06-27T09:37:58.956Z,24.2
2016-06-27T09:39:58.451Z,24.2
2016-06-27T09:40:58.266Z,24.2
2016-06-27T09:41:58.450Z,24.2
2016-06-27T09:42:58.758Z,24.2
2016-06-27T09:43:59.015Z,24.2
2016-06-27T09:45:00.032Z,24.2
2016-06-27T09:46:00.464Z,24.2
2016-06-27T09:47:00.661Z,24.2
2016-06-27T09:48:01.234Z,24.2
2016-06-27T09:49:02.047Z,24.2
2016-06-27T09:50:03.380Z,24.2
2016-06-27T09:51:04.198Z,24.2
2016-06-27T09:52:05.021Z,24.2
2016-06-27T09:53:05.840Z,24.1
2016-06-27T09:54:06.718Z,24.2
2016-06-27T09:55:07.735Z,24.1
2016-06-27T09:56:08.417Z,24.2
2016-06-27T09:57:09.125Z,24.1
2016-06-27T09:58:09.814Z,24.2
2016-06-27T09:59:10.528Z,24.2
2016-06-27T10:00:11.341Z,24.1
2016-06-27T10:01:12.162Z,24.1
2016-06-27T10:02:12.985Z,24.1
2016-06-27T10:03:13.814Z,24.1
2016-06-27T10:04:14.691Z,24.1
2016-06-27T10:05:15.830Z,24.1
2016-06-27T10:06:16.530Z,24.1
2016-06-27T10:07:17.355Z,24.1
2016-06-27T10:08:17.921Z,24.1
2016-06-27T10:09:18.488Z,24.1
2016-06-27T10:10:19.426Z,24.1
2016-06-27T10:11:20.359Z,24.1
2016-06-27T10:13:20.876Z,24.1
2016-06-27T10:14:21.250Z,24.1
2016-06-27T10:15:22.162Z,24
2016-06-27T10:16:22.723Z,24
2016-06-27T10:17:23.038Z,24
2016-06-27T10:18:23.354Z,24
2016-06-27T10:19:23.663Z,24
2016-06-27T10:20:24.091Z,24.1
2016-06-27T10:21:24.548Z,24
2016-06-27T10:22:24.976Z,24.1
2016-06-27T10:23:25.215Z,24
2016-06-27T10:24:25.548Z,24
2016-06-27T10:25:26.567Z,24
2016-06-27T10:26:26.990Z,24.1
2016-06-27T10:27:27.195Z,24
2016-06-27T10:28:27.625Z,24
2016-06-27T10:29:27.821Z,24.1
2016-06-27T10:30:28.258Z,24
2016-06-27T10:31:28.446Z,24.1
2016-06-27T10:32:28.880Z,24.1
2016-06-27T10:33:29.189Z,24.1
2016-06-27T10:34:29.711Z,24.1
2016-06-27T10:35:30.718Z,24.1
2016-06-27T10:36:31.030Z,24.1
2016-06-27T10:37:31.217Z,24.1
2016-06-27T10:38:31.273Z,24.1
2016-06-27T10:39:30.964Z,24.1
2016-06-27T10:40:30.764Z,24.1
2016-06-27T10:41:30.573Z,24.1
2016-06-27T10:42:30.614Z,24.1
2016-06-27T10:43:30.194Z,24.1
2016-06-27T10:44:30.047Z,24.1
2016-06-27T10:45:31.067Z,24.1
2016-06-27T10:46:30.874Z,24.1
2016-06-27T10:47:30.802Z,24.1
2016-06-27T10:48:30.369Z,24.1
2016-06-27T10:49:29.787Z,24.1
2016-06-27T10:50:29.385Z,24.1
2016-06-27T10:51:29.024Z,24.1
2016-06-27T10:52:28.454Z,24.1
2016-06-27T10:53:28.124Z,24.1
2016-06-27T10:54:27.733Z,24.1
2016-06-27T10:55:28.648Z,24.1
2016-06-27T10:56:28.187Z,24.1
2016-06-27T10:57:27.603Z,24.1
2016-06-27T10:58:26.789Z,24.1
2016-06-27T10:59:26.091Z,24.1
2016-06-27T11:00:25.508Z,24.1
2016-06-27T11:01:24.442Z,24.1
2016-06-27T11:02:23.482Z,24.1
2016-06-27T11:03:22.405Z,24.1
2016-06-27T11:04:21.384Z,24.1
2016-06-27T11:05:22.520Z,24.1
2016-06-27T11:06:21.319Z,24.1
2016-06-27T11:07:20.242Z,24.1
2016-06-27T11:08:19.037Z,24.1
2016-06-27T11:09:18.202Z,24.1
2016-06-27T11:10:16.882Z,24.1
2016-06-27T11:11:15.929Z,24.1
2016-06-27T11:12:14.976Z,24.1
2016-06-27T11:13:13.766Z,24.1
2016-06-27T11:14:12.872Z,24.1
2016-06-27T11:15:13.886Z,24.1
2016-06-27T11:16:12.682Z,24.1
2016-06-27T11:17:11.475Z,24.1
2016-06-27T11:18:10.391Z,24.1
2016-06-27T11:19:09.062Z,24.1
2016-06-27T11:20:07.854Z,24.1
2016-06-27T11:21:06.654Z,24.1
2016-06-27T11:22:05.457Z,24.1
2016-06-27T11:23:04.610Z,24.1
2016-06-27T11:24:03.380Z,24.1
2016-06-27T11:25:04.385Z,24.1
2016-06-27T11:26:03.416Z,24.1
2016-06-27T11:27:02.458Z,24.1
2016-06-27T11:28:01.251Z,24.1
2016-06-27T11:29:00.054Z,24.1
2016-06-27T11:29:58.838Z,24.1
2016-06-27T11:30:57.747Z,24.1
2016-06-27T11:31:56.542Z,24.2
2016-06-27T11:32:55.226Z,24.2
2016-06-27T11:33:54.185Z,24.1
2016-06-27T11:34:55.201Z,24.2
2016-06-27T11:35:53.880Z,24.2
2016-06-27T11:36:52.675Z,24.2
2016-06-27T11:37:51.467Z,24.2
2016-06-27T11:38:50.284Z,24.2
2016-06-27T11:39:49.057Z,24.1
2016-06-27T11:40:47.851Z,24.1
2016-06-27T11:41:46.647Z,24.1
2016-06-27T11:42:45.577Z,24.2
2016-06-27T11:43:44.061Z,24.1
2016-06-27T11:44:45.079Z,24.1
2016-06-27T11:45:43.763Z,24.1
2016-06-27T11:46:42.172Z,24.1
2016-06-27T11:47:40.819Z,24.1
2016-06-27T11:48:39.263Z,24.1
2016-06-27T11:49:37.787Z,24.1
2016-06-27T11:50:36.435Z,24.1
2016-06-27T11:51:34.885Z,24.1
2016-06-27T11:52:33.521Z,24.1
2016-06-27T11:53:32.002Z,24.1
2016-06-27T11:54:33.138Z,24.1
2016-06-27T11:55:31.657Z,24.1
2016-06-27T11:56:30.472Z,24.2
2016-06-27T11:57:28.892Z,24.2
2016-06-27T11:58:27.409Z,24.2
2016-06-27T11:59:26.202Z,24.2
2016-06-27T12:00:25.006Z,24.2
2016-06-27T12:01:23.914Z,24.2
2016-06-27T12:02:22.613Z,24.2
2016-06-27T12:03:21.212Z,24.2
2016-06-27T12:04:22.357Z,24.2
2016-06-27T12:05:20.770Z,24.2
2016-06-27T12:06:19.311Z,24.2
2016-06-27T12:07:17.850Z,24.2
2016-06-27T12:08:16.398Z,24.2
2016-06-27T12:09:14.933Z,24.2
2016-06-27T12:10:13.590Z,24.2
2016-06-27T12:11:12.130Z,24.2
2016-06-27T12:12:10.551Z,24.2
2016-06-27T12:13:09.387Z,24.2
2016-06-27T12:14:10.183Z,24.2
2016-06-27T12:15:08.570Z,24.2
2016-06-27T12:16:06.743Z,24.2
2016-06-27T12:17:05.047Z,24.1
2016-06-27T12:18:03.438Z,24.1
2016-06-27T12:19:01.604Z,24.2
2016-06-27T12:19:59.893Z,24.2
2016-06-27T12:20:58.414Z,24.2
2016-06-27T12:21:56.466Z,24.1
2016-06-27T12:22:54.815Z,24.1
2016-06-27T12:23:55.947Z,24.2
2016-06-27T12:24:54.275Z,24.2
2016-06-27T12:25:52.640Z,24.1
2016-06-27T12:26:50.695Z,24.2
2016-06-27T12:27:48.980Z,24.2
2016-06-27T12:28:47.017Z,24.2
2016-06-27T12:29:45.050Z,24.2
2016-06-27T12:30:43.089Z,24.2
2016-06-27T12:31:41.136Z,24.1
2016-06-27T12:32:39.318Z,24.2
2016-06-27T12:33:40.342Z,24.1
2016-06-27T12:34:38.253Z,24.2
2016-06-27T12:35:36.409Z,24.2
2016-06-27T12:36:34.554Z,24.2
2016-06-27T12:37:32.474Z,24.2
2016-06-27T12:38:30.761Z,24.2
2016-06-27T12:39:28.928Z,24.2
2016-06-27T12:40:27.218Z,24.2
2016-06-27T12:41:25.505Z,24.2
2016-06-27T12:42:24.106Z,24.2
2016-06-27T12:43:25.118Z,24.2
2016-06-27T12:44:23.658Z,24.2
2016-06-27T12:45:21.945Z,24.2
2016-06-27T12:46:20.373Z,24.2
2016-06-27T12:47:18.777Z,24.3
2016-06-27T12:48:17.314Z,24.2
2016-06-27T12:49:15.599Z,24.2
2016-06-27T12:50:13.913Z,24.2
2016-06-27T12:51:12.174Z,24.2
2016-06-27T12:52:10.640Z,24.2
2016-06-27T12:53:11.661Z,24.1
2016-06-27T12:54:09.825Z,24.2
2016-06-27T12:55:08.115Z,24.2
2016-06-27T12:56:06.519Z,24.2
2016-06-27T12:57:05.062Z,24.2
2016-06-27T12:58:03.499Z,24.2
2016-06-27T12:59:01.773Z,24.2
2016-06-27T13:00:00.051Z,24.2
2016-06-27T13:00:58.335Z,24.2
2016-06-27T13:01:56.683Z,24.2
2016-06-27T13:02:57.704Z,24.2
2016-06-27T13:03:56.248Z,24.2
2016-06-27T13:04:54.785Z,24.2
2016-06-27T13:05:53.084Z,24.2
2016-06-27T13:06:51.608Z,24.2
2016-06-27T13:07:50.125Z,24.2
2016-06-27T13:08:49.043Z,24.2
2016-06-27T13:09:47.744Z,24.2
2016-06-27T13:10:46.283Z,24.2
2016-06-27T13:11:44.885Z,24.2
2016-06-27T13:12:46.016Z,24.3
2016-06-27T13:13:44.444Z,24.2
2016-06-27T13:14:43.113Z,24.2
2016-06-27T13:15:41.538Z,24.2
2016-06-27T13:16:40.072Z,24.3
2016-06-27T13:17:38.608Z,24.2
2016-06-27T13:18:36.894Z,24.2
2016-06-27T13:19:35.178Z,24.2
2016-06-27T13:20:33.471Z,24.2
2016-06-27T13:21:31.811Z,24.2
2016-06-27T13:22:32.941Z,24.2
2016-06-27T13:23:31.237Z,24.2